createdAt,value
2019-05-07T00:00:32.868Z,7.00
2019-05-07T00:03:03.249Z,7.00
2019-05-07T00:05:33.264Z,7.10
2019-05-07T00:08:03.132Z,7.00
2019-05-07T00:10:33.127Z,6.80
2019-05-07T00:13:02.725Z,6.50
2019-05-07T00:15:32.768Z,6.70
2019-05-07T00:18:03.192Z,6.70
2019-05-07T00:20:32.961Z,6.70
2019-05-07T00:23:03.089Z,6.80
2019-05-07T00:25:32.907Z,6.70
2019-05-07T00:28:02.922Z,6.50
2019-05-07T00:30:33.212Z,6.40
2019-05-07T00:33:02.962Z,6.30
2019-05-07T00:35:34.011Z,6.20
2019-05-07T00:38:07.961Z,6.40
2019-05-07T00:40:38.911Z,6.40
2019-05-07T00:43:11.895Z,6.30
2019-05-07T00:45:52.879Z,6.20
2019-05-07T00:48:23.505Z,6.00
2019-05-07T00:50:54.515Z,6.00
2019-05-07T00:53:23.894Z,6.00
2019-05-07T00:55:53.225Z,6.00
2019-05-07T00:58:26.573Z,6.10
2019-05-07T01:00:53.661Z,6.00
2019-05-07T01:03:22.989Z,5.70
2019-05-07T01:05:52.818Z,5.60
2019-05-07T01:08:22.671Z,5.70
2019-05-07T01:10:52.958Z,5.70
2019-05-07T01:13:23.411Z,5.70
2019-05-07T01:15:53.301Z,5.70
2019-05-07T01:18:23.479Z,5.70
2019-05-07T01:20:53.425Z,5.70
2019-05-07T01:23:23.211Z,5.80
2019-05-07T01:25:52.868Z,5.70
2019-05-07T01:28:22.583Z,5.60
2019-05-07T01:30:52.845Z,5.50
2019-05-07T01:33:26.984Z,5.40
2019-05-07T01:35:58.004Z,5.50
2019-05-07T01:38:27.332Z,5.40
2019-05-07T01:40:56.710Z,5.50
2019-05-07T01:43:26.049Z,5.40
2019-05-07T01:45:55.363Z,5.40
2019-05-07T01:48:24.771Z,5.30
2019-05-07T01:50:54.200Z,5.20
2019-05-07T01:53:23.533Z,5.10
2019-05-07T01:55:52.844Z,5.10
2019-05-07T01:58:22.267Z,5.10
2019-05-07T02:00:53.232Z,5.10
2019-05-07T02:03:32.646Z,5.20
2019-05-07T02:06:03.250Z,5.10
2019-05-07T02:08:42.081Z,5.00
2019-05-07T02:11:12.926Z,4.80
2019-05-07T02:13:42.330Z,4.90
2019-05-07T02:16:12.416Z,4.80
2019-05-07T02:18:42.457Z,4.90
2019-05-07T02:21:12.933Z,4.90
2019-05-07T02:23:42.705Z,4.80
2019-05-07T02:26:13.361Z,4.60
2019-05-07T02:28:42.879Z,4.70
2019-05-07T02:31:15.085Z,4.70
2019-05-07T02:33:43.759Z,4.60
2019-05-07T02:36:14.201Z,4.50
2019-05-07T02:38:45.452Z,4.70
2019-05-07T02:41:16.521Z,4.80
2019-05-07T02:43:45.806Z,4.70
2019-05-07T02:46:31.206Z,4.70
2019-05-07T02:48:58.453Z,4.60
2019-05-07T02:51:37.855Z,4.60
2019-05-07T02:54:08.836Z,4.60
2019-05-07T02:56:38.145Z,4.50
2019-05-07T02:59:07.485Z,4.40
2019-05-07T03:01:37.032Z,4.50
2019-05-07T03:04:06.371Z,4.50
2019-05-07T03:06:35.751Z,4.40
2019-05-07T03:09:07.026Z,4.40
2019-05-07T03:11:36.405Z,4.30
2019-05-07T03:14:05.807Z,4.40
2019-05-07T03:16:43.260Z,4.60
2019-05-07T03:19:06.311Z,4.60
2019-05-07T03:21:43.997Z,4.60
2019-05-07T03:24:18.349Z,4.60
2019-05-07T03:26:47.162Z,4.50
2019-05-07T03:29:18.125Z,4.60
2019-05-07T03:31:56.336Z,4.80
2019-05-07T03:34:36.176Z,4.80
2019-05-07T03:37:06.168Z,4.90
2019-05-07T03:39:34.212Z,4.90
2019-05-07T03:42:03.699Z,4.80
2019-05-07T03:44:34.645Z,4.90
2019-05-07T03:47:23.556Z,4.90
2019-05-07T03:49:53.479Z,4.80
2019-05-07T03:52:24.547Z,5.10
2019-05-07T03:54:54.345Z,5.20
2019-05-07T03:57:24.154Z,5.50
2019-05-07T03:59:53.606Z,5.60
2019-05-07T04:02:23.927Z,5.70
2019-05-07T04:04:53.546Z,5.70
2019-05-07T04:07:23.541Z,5.70
2019-05-07T04:09:53.585Z,5.70
2019-05-07T04:12:23.848Z,5.70
2019-05-07T04:14:53.892Z,5.80
2019-05-07T04:17:26.863Z,5.80
2019-05-07T04:19:54.378Z,5.70
2019-05-07T04:22:28.458Z,5.60
2019-05-07T04:24:56.806Z,5.40
2019-05-07T04:27:33.258Z,5.60
2019-05-07T04:30:03.812Z,5.60
2019-05-07T04:32:34.677Z,5.70
2019-05-07T04:35:17.706Z,5.70
2019-05-07T04:37:47.008Z,5.70
2019-05-07T04:40:16.461Z,5.70
2019-05-07T04:42:45.793Z,5.60
2019-05-07T04:45:15.594Z,5.60
2019-05-07T04:47:47.787Z,5.70
2019-05-07T04:50:37.270Z,5.70
2019-05-07T04:52:49.061Z,5.70
2019-05-07T04:55:22.756Z,5.70
2019-05-07T04:57:53.369Z,5.60
2019-05-07T05:00:22.898Z,5.50
2019-05-07T05:03:03.151Z,5.40
2019-05-07T05:05:33.015Z,5.50
2019-05-07T05:08:03.860Z,5.60
2019-05-07T05:10:33.706Z,5.40
2019-05-07T05:13:03.457Z,5.50
2019-05-07T05:15:32.908Z,5.70
2019-05-07T05:18:02.768Z,5.70
2019-05-07T05:20:33.784Z,5.80
2019-05-07T05:23:07.195Z,5.80
2019-05-07T05:25:42.967Z,5.90
2019-05-07T05:28:12.524Z,6.00
2019-05-07T05:30:52.683Z,6.10
2019-05-07T05:33:23.410Z,6.60
2019-05-07T05:35:52.907Z,6.70
2019-05-07T05:38:22.411Z,6.60
2019-05-07T05:40:52.200Z,6.60
2019-05-07T05:43:28.903Z,6.70
2019-05-07T05:45:59.931Z,6.60
2019-05-07T05:48:29.274Z,6.60
2019-05-07T05:51:06.282Z,6.60
2019-05-07T05:53:40.251Z,6.90
2019-05-07T05:56:13.923Z,6.90
2019-05-07T05:58:47.804Z,6.80
2019-05-07T06:01:24.671Z,6.90
2019-05-07T06:04:07.659Z,6.70
2019-05-07T06:06:38.601Z,6.70
2019-05-07T06:09:13.735Z,7.00
2019-05-07T06:12:02.955Z,7.10
2019-05-07T06:14:33.869Z,7.20
2019-05-07T06:17:12.799Z,7.60
2019-05-07T06:19:49.137Z,7.60
2019-05-07T06:22:25.582Z,7.70
2019-05-07T06:24:58.964Z,7.80
2019-05-07T06:27:28.301Z,8.10
2019-05-07T06:29:57.613Z,8.00
2019-05-07T06:32:28.599Z,7.90
2019-05-07T06:34:57.911Z,8.00
2019-05-07T06:37:29.330Z,8.20
2019-05-07T06:40:06.100Z,8.40
2019-05-07T06:42:52.399Z,8.30
2019-05-07T06:45:32.303Z,8.30
2019-05-07T06:48:02.834Z,8.40
2019-05-07T06:50:32.672Z,8.30
2019-05-07T06:53:02.804Z,8.30
2019-05-07T06:55:32.609Z,8.40
2019-05-07T06:58:02.596Z,8.40
2019-05-07T07:00:42.230Z,8.50
2019-05-07T07:03:25.092Z,8.50
2019-05-07T07:05:56.035Z,8.50
2019-05-07T07:08:32.795Z,9.00
2019-05-07T07:11:03.880Z,9.10
2019-05-07T07:13:33.279Z,9.00
2019-05-07T07:16:02.671Z,9.20
2019-05-07T07:18:32.436Z,9.00
2019-05-07T07:21:02.450Z,9.20
2019-05-07T07:23:32.522Z,9.10
2019-05-07T07:26:03.184Z,9.00
2019-05-07T07:28:32.972Z,9.10
2019-05-07T07:31:09.714Z,9.40
2019-05-07T07:33:40.685Z,9.40
2019-05-07T07:36:11.993Z,9.30
2019-05-07T07:38:42.089Z,9.40
2019-05-07T07:41:14.086Z,9.40
2019-05-07T07:43:43.416Z,9.30
2019-05-07T07:46:13.969Z,9.30
2019-05-07T07:48:43.756Z,9.60
2019-05-07T07:51:13.763Z,9.80
2019-05-07T07:53:43.531Z,10.20
2019-05-07T07:56:45.393Z,10.20
2019-05-07T07:59:03.411Z,10.20
2019-05-07T08:01:34.438Z,10.10
2019-05-07T08:04:03.782Z,10.00
2019-05-07T08:06:33.245Z,10.10
2019-05-07T08:09:02.561Z,10.10
2019-05-07T08:11:32.051Z,10.20
2019-05-07T08:14:02.322Z,10.60
2019-05-07T08:16:32.797Z,10.80
2019-05-07T08:19:02.969Z,10.70
2019-05-07T08:21:33.221Z,10.50
2019-05-07T08:24:02.916Z,10.50
2019-05-07T08:26:32.409Z,10.60
2019-05-07T08:29:02.934Z,10.60
2019-05-07T08:31:51.723Z,10.60
2019-05-07T08:34:42.693Z,10.80
2019-05-07T08:37:12.107Z,10.70
2019-05-07T08:39:42.868Z,10.70
2019-05-07T08:42:12.453Z,10.70
2019-05-07T08:44:49.248Z,10.70
2019-05-07T08:47:22.687Z,11.00
2019-05-07T08:49:52.364Z,11.10
2019-05-07T08:52:22.359Z,11.10
2019-05-07T08:54:52.833Z,11.20
2019-05-07T08:57:22.862Z,11.30
2019-05-07T09:00:00.262Z,11.40
2019-05-07T09:02:23.332Z,11.40
2019-05-07T09:04:52.650Z,11.50
2019-05-07T09:07:22.147Z,11.60
2019-05-07T09:09:52.350Z,11.70
2019-05-07T09:12:22.925Z,11.90
2019-05-07T09:14:53.048Z,12.10
2019-05-07T09:17:23.074Z,12.30
2019-05-07T09:19:54.912Z,12.30
2019-05-07T09:22:23.892Z,12.20
2019-05-07T09:24:53.215Z,11.90
2019-05-07T09:27:24.742Z,11.90
2019-05-07T09:29:55.707Z,12.20
2019-05-07T09:32:27.086Z,12.40
2019-05-07T09:34:58.038Z,12.30
2019-05-07T09:37:29.154Z,12.00
2019-05-07T09:39:58.467Z,11.80
2019-05-07T09:42:27.873Z,11.70
2019-05-07T09:44:57.199Z,11.60
2019-05-07T09:47:27.218Z,11.70
2019-05-07T09:50:04.737Z,11.70
2019-05-07T09:52:27.695Z,11.80
2019-05-07T09:54:57.016Z,11.80
2019-05-07T09:57:31.125Z,11.80
2019-05-07T09:59:57.635Z,11.80
2019-05-07T10:02:27.118Z,12.10
2019-05-07T10:04:56.601Z,12.20
2019-05-07T10:07:25.933Z,12.20
2019-05-07T10:09:55.382Z,12.20
2019-05-07T10:12:26.366Z,12.30
2019-05-07T10:14:55.842Z,12.50
2019-05-07T10:17:29.691Z,12.60
2019-05-07T10:19:59.249Z,12.50
2019-05-07T10:22:28.657Z,12.50
2019-05-07T10:24:58.041Z,12.40
2019-05-07T10:27:27.621Z,12.50
2019-05-07T10:29:57.176Z,12.60
2019-05-07T10:32:26.585Z,12.80
2019-05-07T10:34:55.965Z,12.60
2019-05-07T10:37:25.444Z,12.70
2019-05-07T10:39:54.890Z,12.90
2019-05-07T10:42:24.292Z,13.10
2019-05-07T10:45:13.022Z,13.30
2019-05-07T10:47:52.026Z,13.50
2019-05-07T10:50:35.251Z,13.50
2019-05-07T10:52:54.250Z,13.80
2019-05-07T10:55:23.623Z,13.90
2019-05-07T10:57:53.041Z,13.60
2019-05-07T11:00:25.439Z,13.70
2019-05-07T11:02:54.918Z,13.70
2019-05-07T11:05:24.317Z,13.60
2019-05-07T11:07:54.006Z,13.50
2019-05-07T11:10:23.585Z,13.40
2019-05-07T11:12:54.458Z,13.40
2019-05-07T11:15:23.924Z,13.20
2019-05-07T11:18:02.746Z,13.30
2019-05-07T11:20:32.176Z,14.20
2019-05-07T11:23:02.668Z,15.60
2019-05-07T11:25:32.048Z,15.40
2019-05-07T11:28:02.817Z,15.20
2019-05-07T11:30:32.358Z,15.60
2019-05-07T11:33:02.697Z,15.50
2019-05-07T11:35:32.219Z,15.30
2019-05-07T11:38:06.684Z,15.40
2019-05-07T11:40:34.842Z,15.40
2019-05-07T11:43:05.429Z,15.00
2019-05-07T11:45:48.406Z,14.90
2019-05-07T11:48:18.885Z,15.60
2019-05-07T11:51:04.336Z,15.30
2019-05-07T11:53:34.022Z,15.60
2019-05-07T11:56:03.338Z,15.90
2019-05-07T11:58:32.768Z,16.40
2019-05-07T12:01:04.223Z,16.50
2019-05-07T12:03:33.481Z,16.60
2019-05-07T12:06:02.897Z,16.90
2019-05-07T12:08:42.501Z,16.70
2019-05-07T12:11:03.255Z,17.20
2019-05-07T12:13:32.579Z,16.80
2019-05-07T12:16:02.899Z,16.10
2019-05-07T12:18:32.427Z,16.30
2019-05-07T12:21:03.759Z,16.60
2019-05-07T12:23:33.298Z,16.30
2019-05-07T12:26:02.784Z,16.30
2019-05-07T12:28:32.866Z,16.30
2019-05-07T12:31:15.776Z,15.90
2019-05-07T12:33:58.571Z,15.30
2019-05-07T12:36:28.047Z,15.10
2019-05-07T12:38:57.358Z,15.00
2019-05-07T12:41:29.579Z,15.30
2019-05-07T12:44:02.718Z,15.50
2019-05-07T12:46:33.550Z,15.20
2019-05-07T12:49:03.411Z,15.40
2019-05-07T12:51:37.706Z,14.90
2019-05-07T12:54:07.801Z,14.80
2019-05-07T12:56:37.144Z,15.00
2019-05-07T12:59:06.593Z,15.10
2019-05-07T13:01:37.555Z,15.60
2019-05-07T13:04:11.281Z,15.70
2019-05-07T13:06:42.279Z,15.60
2019-05-07T13:09:12.628Z,15.80
2019-05-07T13:11:42.507Z,16.00
2019-05-07T13:14:12.561Z,16.20
2019-05-07T13:16:41.990Z,16.40
2019-05-07T13:19:13.099Z,16.70
2019-05-07T13:21:47.456Z,16.90
2019-05-07T13:24:14.922Z,17.20
2019-05-07T13:26:44.432Z,17.20
2019-05-07T13:29:13.738Z,16.90
2019-05-07T13:31:43.315Z,17.00
2019-05-07T13:34:13.162Z,17.00
2019-05-07T13:36:44.474Z,17.30
2019-05-07T13:39:15.730Z,17.30
2019-05-07T13:41:46.781Z,17.50
2019-05-07T13:44:17.805Z,17.50
2019-05-07T13:46:48.877Z,17.30
2019-05-07T13:49:18.262Z,17.20
2019-05-07T13:52:01.096Z,16.90
2019-05-07T13:54:21.710Z,16.80
2019-05-07T13:56:52.557Z,16.40
2019-05-07T13:59:22.427Z,16.30
2019-05-07T14:01:53.460Z,16.30
2019-05-07T14:04:22.839Z,16.40
2019-05-07T14:06:52.954Z,16.70
2019-05-07T14:09:25.729Z,16.80
2019-05-07T14:11:55.205Z,17.00
2019-05-07T14:14:24.651Z,17.10
2019-05-07T14:16:54.056Z,17.30
2019-05-07T14:19:23.367Z,17.60
2019-05-07T14:21:52.833Z,17.60
2019-05-07T14:24:22.587Z,17.40
2019-05-07T14:26:52.802Z,17.60
2019-05-07T14:29:24.669Z,17.20
2019-05-07T14:31:55.111Z,17.10
2019-05-07T14:34:36.030Z,16.80
2019-05-07T14:37:08.124Z,16.60
2019-05-07T14:39:37.444Z,16.70
2019-05-07T14:42:08.417Z,16.80
2019-05-07T14:44:50.179Z,17.20
2019-05-07T14:47:22.300Z,17.20
2019-05-07T14:49:52.918Z,16.90
2019-05-07T14:52:39.039Z,16.80
2019-05-07T14:55:12.754Z,17.00
2019-05-07T14:57:42.266Z,17.30
2019-05-07T15:00:12.452Z,17.40
2019-05-07T15:02:42.345Z,17.30
2019-05-07T15:05:12.221Z,17.40
2019-05-07T15:07:41.872Z,17.50
2019-05-07T15:10:11.424Z,17.50
2019-05-07T15:12:42.610Z,17.50
2019-05-07T15:15:12.606Z,17.60
2019-05-07T15:17:55.575Z,17.80
2019-05-07T15:20:24.957Z,18.20
2019-05-07T15:22:58.425Z,18.50
2019-05-07T15:25:27.987Z,18.90
2019-05-07T15:27:57.668Z,18.80
2019-05-07T15:30:28.627Z,18.90
2019-05-07T15:32:57.969Z,18.70
2019-05-07T15:35:27.294Z,18.70
2019-05-07T15:37:56.901Z,18.60
2019-05-07T15:40:26.231Z,18.70
2019-05-07T15:42:55.643Z,18.50
2019-05-07T15:45:25.095Z,18.30
2019-05-07T15:47:56.079Z,18.20
2019-05-07T15:50:27.107Z,18.30
2019-05-07T15:52:58.898Z,18.70
2019-05-07T15:55:28.233Z,18.90
2019-05-07T15:57:58.450Z,18.40
2019-05-07T16:00:33.492Z,18.00
2019-05-07T16:03:12.086Z,18.20
2019-05-07T16:05:42.506Z,18.40
2019-05-07T16:08:13.752Z,18.60
2019-05-07T16:10:43.065Z,18.60
2019-05-07T16:13:14.105Z,18.20
2019-05-07T16:15:43.438Z,18.20
2019-05-07T16:18:23.606Z,18.20
2019-05-07T16:21:04.965Z,18.20
2019-05-07T16:23:33.850Z,18.20
2019-05-07T16:26:05.307Z,18.10
2019-05-07T16:28:34.239Z,18.30
2019-05-07T16:31:03.536Z,18.30
2019-05-07T16:33:34.791Z,18.10
2019-05-07T16:36:03.905Z,18.30
2019-05-07T16:38:33.245Z,18.40
2019-05-07T16:41:02.566Z,18.50
2019-05-07T16:43:31.902Z,18.70
2019-05-07T16:46:02.482Z,18.60
2019-05-07T16:48:32.729Z,18.40
2019-05-07T16:51:02.396Z,18.30
2019-05-07T16:53:33.077Z,18.20
2019-05-07T16:56:03.049Z,18.00
2019-05-07T16:58:48.642Z,17.80
2019-05-07T17:01:18.127Z,17.60
2019-05-07T17:03:49.108Z,17.30
2019-05-07T17:06:18.447Z,17.20
2019-05-07T17:08:51.566Z,17.00
2019-05-07T17:11:22.469Z,17.00
2019-05-07T17:13:51.988Z,16.90
2019-05-07T17:16:22.873Z,17.00
2019-05-07T17:18:52.424Z,17.00
2019-05-07T17:21:21.943Z,16.80
2019-05-07T17:23:51.903Z,16.70
2019-05-07T17:26:23.173Z,16.70
2019-05-07T17:28:52.584Z,16.80
2019-05-07T17:31:22.925Z,16.70
2019-05-07T17:33:52.317Z,16.90
2019-05-07T17:36:22.486Z,16.80
2019-05-07T17:38:52.106Z,16.90
2019-05-07T17:41:26.541Z,16.80
2019-05-07T17:43:52.550Z,16.60
2019-05-07T17:46:21.918Z,16.70
2019-05-07T17:48:52.371Z,16.30
2019-05-07T17:51:42.061Z,16.10
2019-05-07T17:54:13.238Z,15.90
2019-05-07T17:56:43.683Z,15.90
2019-05-07T17:59:13.100Z,16.10
2019-05-07T18:01:44.142Z,15.90
2019-05-07T18:04:13.739Z,15.90
2019-05-07T18:06:43.079Z,15.60
2019-05-07T18:09:12.463Z,15.50
2019-05-07T18:11:42.907Z,15.40
2019-05-07T18:14:12.264Z,15.30
2019-05-07T18:16:45.960Z,15.20
2019-05-07T18:19:15.340Z,15.00
2019-05-07T18:21:44.762Z,14.80
2019-05-07T18:24:16.690Z,14.80
2019-05-07T18:26:45.271Z,14.80
2019-05-07T18:29:14.672Z,14.70
2019-05-07T18:31:57.644Z,14.60
2019-05-07T18:34:27.021Z,14.50
2019-05-07T18:36:56.407Z,14.40
2019-05-07T18:39:25.731Z,14.40
2019-05-07T18:41:55.131Z,14.20
2019-05-07T18:44:24.448Z,14.10
2019-05-07T18:46:53.809Z,14.00
2019-05-07T18:49:23.132Z,14.00
2019-05-07T18:51:52.467Z,13.80
2019-05-07T18:54:30.469Z,13.70
2019-05-07T18:56:54.495Z,13.60
2019-05-07T18:59:32.098Z,13.60
2019-05-07T19:02:02.308Z,13.50
2019-05-07T19:04:32.834Z,13.50
2019-05-07T19:07:02.677Z,13.40
2019-05-07T19:09:33.801Z,13.20
2019-05-07T19:12:04.014Z,13.10
2019-05-07T19:14:33.454Z,13.00
2019-05-07T19:17:03.296Z,13.00
2019-05-07T19:19:32.942Z,12.90
2019-05-07T19:22:02.614Z,12.80
2019-05-07T19:24:44.610Z,12.80
2019-05-07T19:27:04.308Z,12.80
2019-05-07T19:29:33.607Z,12.90
2019-05-07T19:32:05.557Z,12.90
2019-05-07T19:34:34.915Z,12.90
2019-05-07T19:37:04.365Z,12.70
2019-05-07T19:39:33.676Z,12.60
2019-05-07T19:42:03.060Z,12.60
2019-05-07T19:44:32.430Z,12.40
2019-05-07T19:47:02.097Z,12.30
2019-05-07T19:49:32.517Z,12.40
2019-05-07T19:52:01.920Z,12.30
2019-05-07T19:54:32.434Z,12.30
2019-05-07T19:57:02.719Z,12.10
2019-05-07T19:59:32.734Z,12.10
2019-05-07T20:02:03.854Z,12.10
2019-05-07T20:04:33.163Z,12.00
2019-05-07T20:07:07.101Z,12.10
2019-05-07T20:09:38.128Z,12.10
2019-05-07T20:12:08.087Z,12.10
2019-05-07T20:14:37.582Z,12.10
2019-05-07T20:17:07.089Z,11.90
2019-05-07T20:19:36.512Z,11.60
2019-05-07T20:22:05.908Z,11.50
2019-05-07T20:24:35.272Z,11.30
2019-05-07T20:27:04.733Z,11.20
2019-05-07T20:29:36.903Z,11.20
2019-05-07T20:32:06.291Z,11.30
2019-05-07T20:34:35.611Z,11.20
2019-05-07T20:37:05.103Z,11.10
2019-05-07T20:39:34.442Z,11.20
2019-05-07T20:42:03.844Z,11.20
2019-05-07T20:44:33.204Z,11.10
2019-05-07T20:47:02.547Z,11.40
2019-05-07T20:49:32.132Z,11.40
2019-05-07T20:52:01.585Z,11.10
2019-05-07T20:54:42.010Z,11.00
2019-05-07T20:57:15.978Z,11.00
2019-05-07T20:59:45.338Z,10.70
2019-05-07T21:02:14.752Z,10.70
2019-05-07T21:04:44.100Z,10.70
2019-05-07T21:07:13.516Z,10.90
2019-05-07T21:09:42.836Z,10.90
2019-05-07T21:12:12.837Z,10.90
2019-05-07T21:14:42.297Z,10.80
2019-05-07T21:17:12.070Z,10.80
2019-05-07T21:19:42.772Z,10.80
2019-05-07T21:22:13.051Z,11.00
2019-05-07T21:24:42.518Z,11.00
2019-05-07T21:27:12.336Z,11.00
2019-05-07T21:29:42.330Z,10.70
2019-05-07T21:32:12.365Z,10.70
2019-05-07T21:34:42.209Z,10.60
2019-05-07T21:37:12.628Z,10.50
2019-05-07T21:39:42.470Z,10.50
2019-05-07T21:42:14.198Z,10.70
2019-05-07T21:44:43.150Z,10.60
2019-05-07T21:47:12.986Z,10.70
2019-05-07T21:49:43.066Z,10.50
2019-05-07T21:52:12.833Z,10.50
2019-05-07T21:54:43.828Z,10.30
2019-05-07T21:57:14.784Z,10.20
2019-05-07T21:59:44.284Z,10.10
2019-05-07T22:02:16.082Z,10.20
2019-05-07T22:04:45.481Z,10.30
2019-05-07T22:07:14.879Z,10.10
2019-05-07T22:09:44.288Z,10.10
2019-05-07T22:12:13.677Z,10.00
2019-05-07T22:14:43.015Z,10.10
2019-05-07T22:17:12.846Z,10.10
2019-05-07T22:19:42.761Z,10.10
2019-05-07T22:22:12.446Z,10.20
2019-05-07T22:24:42.555Z,10.30
2019-05-07T22:27:12.936Z,10.50
2019-05-07T22:29:42.522Z,10.10
2019-05-07T22:32:13.475Z,10.00
2019-05-07T22:34:47.162Z,10.00
2019-05-07T22:37:16.485Z,10.00
2019-05-07T22:39:45.814Z,10.00
2019-05-07T22:42:15.269Z,9.80
2019-05-07T22:44:44.653Z,9.80
2019-05-07T22:47:22.167Z,9.90
2019-05-07T22:49:53.707Z,9.80
2019-05-07T22:52:22.660Z,9.70
2019-05-07T22:54:51.972Z,9.80
2019-05-07T22:57:37.815Z,9.80
2019-05-07T23:00:12.288Z,9.70
2019-05-07T23:02:42.764Z,9.80
2019-05-07T23:05:13.567Z,9.80
2019-05-07T23:07:44.012Z,9.70
2019-05-07T23:10:13.725Z,9.70
2019-05-07T23:12:43.047Z,9.70
2019-05-07T23:15:13.286Z,9.80
2019-05-07T23:17:42.718Z,9.90
2019-05-07T23:20:12.222Z,9.80
2019-05-07T23:22:42.836Z,9.80
2019-05-07T23:25:12.229Z,9.70
2019-05-07T23:27:42.009Z,9.70
2019-05-07T23:30:12.980Z,9.70
2019-05-07T23:32:42.407Z,9.70
2019-05-07T23:35:12.688Z,9.70
2019-05-07T23:37:44.197Z,9.70
2019-05-07T23:40:22.987Z,9.80
2019-05-07T23:42:56.719Z,9.70
2019-05-07T23:45:26.057Z,9.70
2019-05-07T23:47:55.376Z,9.80
2019-05-07T23:50:24.710Z,9.60
2019-05-07T23:52:54.032Z,9.60
2019-05-07T23:55:23.368Z,9.70
2019-05-07T23:57:52.750Z,9.60
